Time,TemperatureF,DewpointF,PressureIn,WindDirection,WindDirectionDegrees,WindSpeedMPH,WindSpeedGustMPH,Humidity,HourlyPrecipIn,Conditions,Clouds,dailyrainin,SoftwareType,DateUTC
2013-04-29 00:02:00,55.0,52.0,-100.00,South,175,0.0,1.0,88,-99.99,,,-99.99,,2013-04-29 05:02:00,
2013-04-29 00:12:00,55.0,52.0,-100.00,SSW,205,0.0,1.0,89,-99.99,,,-99.99,,2013-04-29 05:12:00,
2013-04-29 00:22:00,55.0,52.0,-100.00,SSW,205,0.0,1.0,89,-99.99,,,-99.99,,2013-04-29 05:22:00,
2013-04-29 00:42:00,55.0,52.0,-100.00,South,170,1.0,2.0,89,-99.99,,,-99.99,,2013-04-29 05:42:00,
2013-04-29 00:52:00,55.0,52.0,-100.00,South,185,1.0,3.0,89,-99.99,,,-99.99,,2013-04-29 05:52:00,
2013-04-29 01:02:00,55.0,52.0,-100.00,South,185,1.0,3.0,89,-99.99,,,-99.99,,2013-04-29 06:02:00,
2013-04-29 01:11:00,55.0,52.0,-100.00,South,175,0.0,1.0,89,-99.99,,,-99.99,,2013-04-29 06:11:00,
2013-04-29 01:21:00,54.0,51.0,-100.00,South,185,0.0,1.0,89,-99.99,,,-99.99,,2013-04-29 06:21:00,
2013-04-29 01:32:00,54.0,51.0,-100.00,South,185,0.0,1.0,89,-99.99,,,-99.99,,2013-04-29 06:32:00,
2013-04-29 01:42:00,53.0,50.0,-100.00,SSW,210,0.0,0.0,89,-99.99,,,-99.99,,2013-04-29 06:42:00,
2013-04-29 01:52:00,53.0,50.0,-100.00,South,170,1.0,1.0,90,-99.99,,,-99.99,,2013-04-29 06:52:00,
2013-04-29 02:01:00,53.0,50.0,-100.00,South,170,1.0,1.0,90,-99.99,,,-99.99,,2013-04-29 07:01:00,
2013-04-29 02:11:00,52.0,49.0,-100.00,South,190,1.0,1.0,90,-99.99,,,-99.99,,2013-04-29 07:11:00,
2013-04-29 02:21:00,51.0,48.0,-100.00,SSW,195,0.0,0.0,90,-99.99,,,-99.99,,2013-04-29 07:21:00,
2013-04-29 02:32:00,51.0,48.0,-100.00,SSW,195,0.0,0.0,90,-99.99,,,-99.99,,2013-04-29 07:32:00,
2013-04-29 02:42:00,50.0,48.0,-100.00,South,180,0.0,1.0,91,-99.99,,,-99.99,,2013-04-29 07:42:00,
2013-04-29 02:52:00,49.0,47.0,-100.00,SSW,195,1.0,2.0,91,-99.99,,,-99.99,,2013-04-29 07:52:00,
2013-04-29 03:03:00,49.0,47.0,-100.00,SSW,195,1.0,2.0,91,-99.99,,,-99.99,,2013-04-29 08:03:00,
2013-04-29 03:11:00,49.0,46.0,-100.00,South,175,3.0,3.0,91,-99.99,,,-99.99,,2013-04-29 08:11:00,
2013-04-29 03:21:00,49.0,46.0,-100.00,South,180,1.0,2.0,91,-99.99,,,-99.99,,2013-04-29 08:21:00,
2013-04-29 03:32:00,49.0,46.0,-100.00,South,180,1.0,2.0,91,-99.99,,,-99.99,,2013-04-29 08:32:00,
2013-04-29 03:42:00,48.0,46.0,-100.00,South,170,2.0,3.0,91,-99.99,,,-99.99,,2013-04-29 08:42:00,
2013-04-29 03:52:00,49.0,46.0,-100.00,South,175,3.0,3.0,91,-99.99,,,-99.99,,2013-04-29 08:52:00,
2013-04-29 04:01:00,49.0,46.0,-100.00,South,175,3.0,3.0,91,-99.99,,,-99.99,,2013-04-29 09:01:00,
2013-04-29 04:12:00,49.0,47.0,-100.00,SSE,160,3.0,3.0,92,-99.99,,,-99.99,,2013-04-29 09:12:00,
2013-04-29 04:21:00,49.0,47.0,-100.00,South,170,2.0,3.0,92,-99.99,,,-99.99,,2013-04-29 09:21:00,
2013-04-29 04:33:00,49.0,47.0,-100.00,South,170,2.0,3.0,92,-99.99,,,-99.99,,2013-04-29 09:33:00,
2013-04-29 04:42:00,50.0,47.0,-100.00,South,190,1.0,1.0,92,-99.99,,,-99.99,,2013-04-29 09:42:00,
2013-04-29 04:53:00,49.0,46.0,-100.00,South,175,2.0,3.0,92,-99.99,,,-99.99,,2013-04-29 09:53:00,
2013-04-29 05:02:00,49.0,46.0,-100.00,South,175,2.0,3.0,92,-99.99,,,-99.99,,2013-04-29 10:02:00,
2013-04-29 05:12:00,48.0,46.0,-100.00,South,170,2.0,3.0,92,-99.99,,,-99.99,,2013-04-29 10:12:00,
2013-04-29 05:23:00,48.0,46.0,-100.00,SSE,160,2.0,3.0,92,-99.99,,,-99.99,,2013-04-29 10:23:00,
2013-04-29 05:32:00,48.0,46.0,-100.00,SSE,160,2.0,3.0,92,-99.99,,,-99.99,,2013-04-29 10:32:00,
2013-04-29 05:42:00,48.0,45.0,-100.00,SSE,165,3.0,3.0,92,-99.99,,,-99.99,,2013-04-29 10:42:00,
2013-04-29 05:52:00,48.0,46.0,-100.00,SSE,160,3.0,4.0,92,-99.99,,,-99.99,,2013-04-29 10:52:00,
2013-04-29 06:03:00,48.0,46.0,-100.00,SSE,160,3.0,4.0,92,-99.99,,,-99.99,,2013-04-29 11:03:00,
2013-04-29 06:12:00,50.0,48.0,-100.00,SSE,160,4.0,6.0,92,-99.99,,,-99.99,,2013-04-29 11:12:00,
2013-04-29 06:21:00,50.0,48.0,-100.00,South,180,3.0,4.0,92,-99.99,,,-99.99,,2013-04-29 11:21:00,
2013-04-29 06:32:00,50.0,48.0,-100.00,South,180,3.0,4.0,92,-99.99,,,-99.99,,2013-04-29 11:32:00,
2013-04-29 06:42:00,51.0,49.0,-100.00,South,170,3.0,4.0,92,-99.99,,,-99.99,,2013-04-29 11:42:00,
2013-04-29 06:52:00,51.0,49.0,-100.00,SSE,150,2.0,3.0,92,-99.99,,,-99.99,,2013-04-29 11:52:00,
2013-04-29 07:01:00,51.0,49.0,-100.00,SSE,150,2.0,3.0,92,-99.99,,,-99.99,,2013-04-29 12:01:00,
2013-04-29 07:12:00,51.0,49.0,-100.00,South,185,3.0,4.0,92,-99.99,,,-99.99,,2013-04-29 12:12:00,
2013-04-29 07:22:00,51.0,49.0,-100.00,SSW,195,3.0,4.0,92,-99.99,,,-99.99,,2013-04-29 12:22:00,
2013-04-29 07:32:00,51.0,49.0,-100.00,SSW,195,3.0,4.0,92,-99.99,,,-99.99,,2013-04-29 12:32:00,
2013-04-29 07:42:00,51.0,49.0,-100.00,SSW,195,3.0,4.0,92,-99.99,,,-99.99,,2013-04-29 12:42:00,
2013-04-29 07:52:00,52.0,50.0,-100.00,South,180,3.0,6.0,92,-99.99,,,-99.99,,2013-04-29 12:52:00,
2013-04-29 08:01:00,52.0,50.0,-100.00,South,180,3.0,6.0,92,-99.99,,,-99.99,,2013-04-29 13:01:00,
2013-04-29 08:11:00,52.0,50.0,-100.00,SSE,160,4.0,6.0,92,-99.99,,,-99.99,,2013-04-29 13:11:00,
2013-04-29 08:21:00,53.0,50.0,-100.00,South,175,4.0,9.0,92,-99.99,,,-99.99,,2013-04-29 13:21:00,
2013-04-29 08:31:00,53.0,50.0,-100.00,South,175,4.0,9.0,92,-99.99,,,-99.99,,2013-04-29 13:31:00,
2013-04-29 08:42:00,53.0,51.0,-100.00,ESE,120,4.0,6.0,92,-99.99,,,-99.99,,2013-04-29 13:42:00,
2013-04-29 08:52:00,53.0,51.0,-100.00,SSE,160,4.0,8.0,92,-99.99,,,-99.99,,2013-04-29 13:52:00,
2013-04-29 09:02:00,53.0,51.0,-100.00,SSE,160,4.0,8.0,92,-99.99,,,-99.99,,2013-04-29 14:02:00,
2013-04-29 09:11:00,53.0,51.0,-100.00,SSE,160,4.0,8.0,92,-99.99,,,-99.99,,2013-04-29 14:11:00,
2013-04-29 09:21:00,57.0,55.0,-100.00,SSW,200,1.0,4.0,92,-99.99,,,-99.99,,2013-04-29 14:21:00,
2013-04-29 09:32:00,57.0,55.0,-100.00,SSW,200,1.0,4.0,92,-99.99,,,-99.99,,2013-04-29 14:32:00,
2013-04-29 09:42:00,57.0,55.0,-100.00,SSW,200,1.0,4.0,92,-99.99,,,-99.99,,2013-04-29 14:42:00,
2013-04-29 10:12:00,58.0,54.0,-100.00,SSE,150,1.0,3.0,87,-99.99,,,-99.99,,2013-04-29 15:12:00,
2013-04-29 10:21:00,59.0,52.0,-100.00,SE,145,4.0,12.0,78,-99.99,,,-99.99,,2013-04-29 15:21:00,
2013-04-29 10:33:00,59.0,52.0,-100.00,SE,145,4.0,12.0,78,-99.99,,,-99.99,,2013-04-29 15:33:00,
2013-04-29 10:42:00,62.0,53.0,-100.00,SSE,155,10.0,12.0,72,-99.99,,,-99.99,,2013-04-29 15:42:00,
2013-04-29 10:53:00,63.0,51.0,-100.00,SE,145,8.0,10.0,65,-99.99,,,-99.99,,2013-04-29 15:53:00,
2013-04-29 11:03:00,63.0,51.0,-100.00,SE,145,8.0,10.0,65,-99.99,,,-99.99,,2013-04-29 16:03:00,
2013-04-29 11:12:00,63.0,51.0,-100.00,SE,145,8.0,10.0,65,-99.99,,,-99.99,,2013-04-29 16:12:00,
2013-04-29 11:52:00,66.0,50.0,-100.00,SSE,165,4.0,9.0,55,-99.99,,,-99.99,,2013-04-29 16:52:00,
2013-04-29 12:02:00,66.0,50.0,-100.00,SSE,165,4.0,9.0,55,-99.99,,,-99.99,,2013-04-29 17:02:00,
2013-04-29 12:12:00,66.0,50.0,-100.00,SSE,165,4.0,9.0,55,-99.99,,,-99.99,,2013-04-29 17:12:00,
2013-04-29 12:52:00,69.0,51.0,-100.00,SSE,160,9.0,18.0,52,-99.99,,,-99.99,,2013-04-29 17:52:00,
2013-04-29 13:01:00,69.0,51.0,-100.00,SSE,160,9.0,18.0,52,-99.99,,,-99.99,,2013-04-29 18:01:00,
2013-04-29 13:13:00,69.0,51.0,-100.00,SSE,160,9.0,18.0,52,-99.99,,,-99.99,,2013-04-29 18:13:00,
2013-04-29 14:11:00,70.0,50.0,-100.00,South,190,6.0,16.0,49,-99.99,,,-99.99,,2013-04-29 19:11:00,
2013-04-29 14:21:00,69.0,50.0,-100.00,SE,135,8.0,9.0,50,-99.99,,,-99.99,,2013-04-29 19:21:00,
2013-04-29 14:31:00,69.0,50.0,-100.00,SE,135,8.0,9.0,50,-99.99,,,-99.99,,2013-04-29 19:31:00,
2013-04-29 14:41:00,69.0,50.0,-100.00,SE,135,8.0,9.0,50,-99.99,,,-99.99,,2013-04-29 19:41:00,
2013-04-29 15:12:00,71.0,50.0,-100.00,SSE,165,6.0,12.0,49,-99.99,,,-99.99,,2013-04-29 20:12:00,
2013-04-29 15:21:00,70.0,50.0,-100.00,SE,130,4.0,8.0,49,-99.99,,,-99.99,,2013-04-29 20:21:00,
2013-04-29 15:32:00,70.0,50.0,-100.00,SE,130,4.0,8.0,49,-99.99,,,-99.99,,2013-04-29 20:32:00,
2013-04-29 15:42:00,71.0,51.0,-100.00,South,185,9.0,14.0,49,-99.99,,,-99.99,,2013-04-29 20:42:00,
2013-04-29 15:52:00,72.0,51.0,-100.00,South,185,6.0,10.0,48,-99.99,,,-99.99,,2013-04-29 20:52:00,
2013-04-29 16:01:00,72.0,51.0,-100.00,South,185,6.0,10.0,48,-99.99,,,-99.99,,2013-04-29 21:01:00,
2013-04-29 16:11:00,71.0,51.0,-100.00,SE,140,9.0,12.0,49,-99.99,,,-99.99,,2013-04-29 21:11:00,
2013-04-29 16:21:00,72.0,51.0,-100.00,South,185,6.0,10.0,48,-99.99,,,-99.99,,2013-04-29 21:21:00,
2013-04-29 16:33:00,72.0,51.0,-100.00,South,185,6.0,10.0,48,-99.99,,,-99.99,,2013-04-29 21:33:00,
2013-04-29 16:42:00,72.0,51.0,-100.00,South,185,6.0,10.0,48,-99.99,,,-99.99,,2013-04-29 21:42:00,
2013-04-29 16:53:00,73.0,52.0,-100.00,SSE,165,0.0,3.0,48,-99.99,,,-99.99,,2013-04-29 21:53:00,
2013-04-29 17:02:00,73.0,52.0,-100.00,SSE,165,0.0,3.0,48,-99.99,,,-99.99,,2013-04-29 22:02:00,
2013-04-29 17:13:00,72.0,51.0,-100.00,SSE,165,10.0,12.0,47,-99.99,,,-99.99,,2013-04-29 22:13:00,
2013-04-29 17:23:00,74.0,51.0,-100.00,South,180,6.0,9.0,45,-99.99,,,-99.99,,2013-04-29 22:23:00,
2013-04-29 17:32:00,74.0,51.0,-100.00,South,180,6.0,9.0,45,-99.99,,,-99.99,,2013-04-29 22:32:00,
2013-04-29 17:42:00,73.0,51.0,-100.00,SSW,195,9.0,12.0,45,-99.99,,,-99.99,,2013-04-29 22:42:00,
2013-04-29 17:53:00,73.0,51.0,-100.00,SSW,195,6.0,14.0,46,-99.99,,,-99.99,,2013-04-29 22:53:00,
2013-04-29 18:02:00,73.0,51.0,-100.00,SSW,195,6.0,14.0,46,-99.99,,,-99.99,,2013-04-29 23:02:00,
2013-04-29 18:11:00,73.0,51.0,-100.00,South,175,4.0,10.0,46,-99.99,,,-99.99,,2013-04-29 23:11:00,
2013-04-29 18:22:00,73.0,51.0,-100.00,SSE,165,4.0,9.0,46,-99.99,,,-99.99,,2013-04-29 23:22:00,
2013-04-29 18:32:00,73.0,51.0,-100.00,SSE,165,4.0,9.0,46,-99.99,,,-99.99,,2013-04-29 23:32:00,
2013-04-29 18:42:00,72.0,50.0,-100.00,SE,125,4.0,10.0,46,-99.99,,,-99.99,,2013-04-29 23:42:00,
2013-04-29 18:52:00,72.0,51.0,-100.00,SSE,160,2.0,9.0,47,-99.99,,,-99.99,,2013-04-29 23:52:00,
2013-04-29 19:01:00,72.0,51.0,-100.00,SSE,160,2.0,9.0,47,-99.99,,,-99.99,,2013-04-30 00:01:00,
2013-04-29 19:11:00,72.0,51.0,-100.00,SSE,150,1.0,4.0,48,-99.99,,,-99.99,,2013-04-30 00:11:00,
2013-04-29 19:21:00,72.0,51.0,-100.00,South,175,2.0,6.0,48,-99.99,,,-99.99,,2013-04-30 00:21:00,
2013-04-29 19:31:00,69.0,51.0,-100.00,SE,125,0.0,0.0,54,-99.99,,,-99.99,,2013-04-30 00:31:00,
2013-04-29 19:32:00,72.0,51.0,-100.00,South,175,2.0,6.0,48,-99.99,,,-99.99,,2013-04-30 00:32:00,
2013-04-29 19:42:00,72.0,51.0,-100.00,South,175,2.0,6.0,48,-99.99,,,-99.99,,2013-04-30 00:42:00,
2013-04-29 20:11:00,69.0,51.0,-100.00,SE,125,0.0,0.0,54,-99.99,,,-99.99,,2013-04-30 01:11:00,
2013-04-29 20:22:00,69.0,51.0,-100.00,SE,125,0.0,0.0,54,-99.99,,,-99.99,,2013-04-30 01:22:00,
2013-04-29 20:52:00,65.0,53.0,-100.00,SSE,160,1.0,3.0,65,-99.99,,,-99.99,,2013-04-30 01:52:00,
2013-04-29 21:01:00,65.0,53.0,-100.00,SSE,160,1.0,3.0,65,-99.99,,,-99.99,,2013-04-30 02:01:00,
2013-04-29 21:11:00,65.0,53.0,-100.00,SSE,160,1.0,3.0,65,-99.99,,,-99.99,,2013-04-30 02:11:00,
2013-04-29 21:21:00,62.0,55.0,-100.00,SSE,150,2.0,3.0,76,-99.99,,,-99.99,,2013-04-30 02:21:00,
2013-04-29 21:31:00,62.0,55.0,-100.00,SSE,150,2.0,3.0,76,-99.99,,,-99.99,,2013-04-30 02:31:00,
2013-04-29 21:41:00,62.0,55.0,-100.00,SSE,150,2.0,3.0,76,-99.99,,,-99.99,,2013-04-30 02:41:00,
2013-04-29 22:21:00,60.0,55.0,-100.00,South,175,3.0,3.0,85,-99.99,,,-99.99,,2013-04-30 03:21:00,
2013-04-29 22:33:00,60.0,55.0,-100.00,South,175,3.0,3.0,85,-99.99,,,-99.99,,2013-04-30 03:33:00,
2013-04-29 22:42:00,60.0,55.0,-100.00,South,175,3.0,3.0,85,-99.99,,,-99.99,,2013-04-30 03:42:00,